createdAt,value
2018-09-09T00:00:49.894Z,73.90
2018-09-09T00:03:18.291Z,74.30
2018-09-09T00:05:46.730Z,74.90
2018-09-09T00:08:15.161Z,75.20
2018-09-09T00:10:43.700Z,75.20
2018-09-09T00:13:12.136Z,75.50
2018-09-09T00:15:40.536Z,75.60
2018-09-09T00:18:08.975Z,75.90
2018-09-09T00:20:37.456Z,76.10
2018-09-09T00:23:06.075Z,76.10
2018-09-09T00:25:34.484Z,76.30
2018-09-09T00:28:03.183Z,76.30
2018-09-09T00:30:32.936Z,76.40
2018-09-09T00:33:01.365Z,76.40
2018-09-09T00:35:29.777Z,76.40
2018-09-09T00:37:58.277Z,77.20
2018-09-09T00:40:26.749Z,77.40
2018-09-09T00:42:55.196Z,77.60
2018-09-09T00:45:23.628Z,77.90
2018-09-09T00:47:52.115Z,77.90
2018-09-09T00:50:25.867Z,77.50
2018-09-09T00:52:59.597Z,77.70
2018-09-09T00:55:28.129Z,78.20
2018-09-09T00:57:56.672Z,78.20
2018-09-09T01:00:30.558Z,78.60
2018-09-09T01:02:59.028Z,78.30
2018-09-09T01:05:28.679Z,79.10
2018-09-09T01:07:57.192Z,79.80
2018-09-09T01:10:25.613Z,80.10
2018-09-09T01:12:54.054Z,80.60
2018-09-09T01:15:22.601Z,80.70
2018-09-09T01:17:51.046Z,81.00
2018-09-09T01:20:19.430Z,80.70
2018-09-09T01:22:47.872Z,80.60
2018-09-09T01:25:16.923Z,81.80
2018-09-09T01:27:45.358Z,81.70
2018-09-09T01:30:13.833Z,81.80
2018-09-09T01:32:42.289Z,81.60
2018-09-09T01:35:10.728Z,81.40
2018-09-09T01:37:39.148Z,81.10
2018-09-09T01:40:07.609Z,81.10
2018-09-09T01:42:36.020Z,80.90
2018-09-09T01:45:04.444Z,81.00
2018-09-09T01:47:32.868Z,80.90
2018-09-09T01:50:01.558Z,81.40
2018-09-09T01:52:29.963Z,81.50
2018-09-09T01:54:58.345Z,81.80
2018-09-09T01:57:26.892Z,82.20
2018-09-09T01:59:55.292Z,82.40
2018-09-09T02:02:23.786Z,82.70
2018-09-09T02:04:52.189Z,82.90
2018-09-09T02:07:20.639Z,82.80
2018-09-09T02:09:49.174Z,82.90
2018-09-09T02:12:17.650Z,83.10
2018-09-09T02:14:46.108Z,83.10
2018-09-09T02:17:14.571Z,83.00
2018-09-09T02:19:42.978Z,83.00
2018-09-09T02:22:11.353Z,83.40
2018-09-09T02:24:40.747Z,83.40
2018-09-09T02:27:09.165Z,83.00
2018-09-09T02:29:37.683Z,83.30
2018-09-09T02:32:06.224Z,83.40
2018-09-09T02:34:35.696Z,83.50
2018-09-09T02:37:04.144Z,83.50
2018-09-09T02:39:32.649Z,83.30
2018-09-09T02:42:01.005Z,83.20
2018-09-09T02:44:29.418Z,83.00
2018-09-09T02:46:57.802Z,83.10
2018-09-09T02:49:26.317Z,83.10
2018-09-09T02:51:54.786Z,83.30
2018-09-09T02:54:23.220Z,83.30
2018-09-09T02:56:51.639Z,83.50
2018-09-09T02:59:20.251Z,83.90
2018-09-09T03:01:48.721Z,83.90
2018-09-09T03:04:17.195Z,84.50
2018-09-09T03:06:45.607Z,84.60
2018-09-09T03:09:14.044Z,84.90
2018-09-09T03:11:42.468Z,84.80
2018-09-09T03:14:10.912Z,85.00
2018-09-09T03:16:39.318Z,85.10
2018-09-09T03:19:07.728Z,85.00
2018-09-09T03:21:36.143Z,85.10
2018-09-09T03:24:04.587Z,85.20
2018-09-09T03:26:32.940Z,85.30
2018-09-09T03:29:01.354Z,85.60
2018-09-09T03:31:29.777Z,85.70
2018-09-09T03:33:58.592Z,85.90
2018-09-09T03:36:27.142Z,86.10
2018-09-09T03:38:56.232Z,85.80
2018-09-09T03:41:24.700Z,85.80
2018-09-09T03:43:53.050Z,86.00
2018-09-09T03:46:21.468Z,86.00
2018-09-09T03:48:49.853Z,86.20
2018-09-09T03:51:19.839Z,86.00
2018-09-09T03:53:48.355Z,86.00
2018-09-09T03:56:16.757Z,86.30
2018-09-09T03:58:45.128Z,86.10
2018-09-09T04:01:13.617Z,86.20
2018-09-09T04:03:42.082Z,86.60
2018-09-09T04:06:10.495Z,86.80
2018-09-09T04:08:39.053Z,86.70
2018-09-09T04:11:10.672Z,86.60
2018-09-09T04:13:40.975Z,86.70
2018-09-09T04:16:10.354Z,86.70
2018-09-09T04:18:38.960Z,86.70
2018-09-09T04:21:07.572Z,86.70
2018-09-09T04:23:36.067Z,87.00
2018-09-09T04:26:04.687Z,87.00
2018-09-09T04:28:33.149Z,87.10
2018-09-09T04:31:01.639Z,87.60
2018-09-09T04:33:29.981Z,88.10
2018-09-09T04:35:58.382Z,88.30
2018-09-09T04:38:26.831Z,88.70
2018-09-09T04:40:55.212Z,88.70
2018-09-09T04:43:23.605Z,88.70
2018-09-09T04:45:52.010Z,88.90
2018-09-09T04:48:20.524Z,89.00
2018-09-09T04:50:48.942Z,88.80
2018-09-09T04:53:17.386Z,89.20
2018-09-09T04:55:45.761Z,88.60
2018-09-09T04:58:14.213Z,88.20
2018-09-09T05:00:42.630Z,88.40
2018-09-09T05:03:11.005Z,87.90
2018-09-09T05:05:39.431Z,87.60
2018-09-09T05:08:08.653Z,88.00
2018-09-09T05:10:37.068Z,88.30
2018-09-09T05:13:05.525Z,88.50
2018-09-09T05:15:33.888Z,89.00
2018-09-09T05:18:02.573Z,88.60
2018-09-09T05:20:30.933Z,88.90
2018-09-09T05:23:00.994Z,88.90
2018-09-09T05:25:29.764Z,89.10
2018-09-09T05:27:58.193Z,89.40
2018-09-09T05:30:26.574Z,89.80
2018-09-09T05:32:55.063Z,89.30
2018-09-09T05:35:23.423Z,89.40
2018-09-09T05:37:52.116Z,89.60
2018-09-09T05:40:20.834Z,89.40
2018-09-09T05:42:49.459Z,89.00
2018-09-09T05:45:18.827Z,88.10
2018-09-09T05:47:47.236Z,87.60
2018-09-09T05:50:15.754Z,87.00
2018-09-09T05:52:44.067Z,86.50
2018-09-09T05:55:12.518Z,86.30
2018-09-09T05:57:40.899Z,86.60
2018-09-09T06:00:09.296Z,86.80
2018-09-09T06:02:37.805Z,86.70
2018-09-09T06:05:06.264Z,86.80
2018-09-09T06:07:34.700Z,87.00
2018-09-09T06:10:03.224Z,86.60
2018-09-09T06:12:31.686Z,86.60
2018-09-09T06:15:00.132Z,86.60
2018-09-09T06:17:29.505Z,86.40
2018-09-09T06:19:57.893Z,86.30
2018-09-09T06:22:26.323Z,86.20
2018-09-09T06:24:54.836Z,86.10
2018-09-09T06:27:23.215Z,85.60
2018-09-09T06:29:51.588Z,85.30
2018-09-09T06:32:20.008Z,84.60
2018-09-09T06:34:49.637Z,84.60
2018-09-09T06:37:17.998Z,84.30
2018-09-09T06:39:46.469Z,83.70
2018-09-09T06:42:14.944Z,82.70
2018-09-09T06:44:43.434Z,82.50
2018-09-09T06:47:11.840Z,81.60
2018-09-09T06:49:40.230Z,81.10
2018-09-09T06:52:08.703Z,80.80
2018-09-09T06:54:37.153Z,80.80
2018-09-09T06:57:12.100Z,80.40
2018-09-09T06:59:41.027Z,79.60
2018-09-09T07:02:10.861Z,79.90
2018-09-09T07:04:39.269Z,79.50
2018-09-09T07:07:07.877Z,79.40
2018-09-09T07:09:36.409Z,79.10
2018-09-09T07:12:04.873Z,79.80
2018-09-09T07:14:34.661Z,79.40
2018-09-09T07:17:03.125Z,79.80
2018-09-09T07:19:32.734Z,79.20
2018-09-09T07:22:01.201Z,78.90
2018-09-09T07:24:29.636Z,78.70
2018-09-09T07:26:59.070Z,79.50
2018-09-09T07:29:27.550Z,79.10
2018-09-09T07:31:56.083Z,79.40
2018-09-09T07:34:24.531Z,79.10
2018-09-09T07:36:52.897Z,79.30
2018-09-09T07:39:22.285Z,79.30
2018-09-09T07:41:50.839Z,79.10
2018-09-09T07:44:19.257Z,79.40
2018-09-09T07:46:48.098Z,79.50
2018-09-09T07:49:16.456Z,78.60
2018-09-09T07:51:45.050Z,77.70
2018-09-09T07:54:13.488Z,77.10
2018-09-09T07:56:41.962Z,76.40
2018-09-09T07:59:10.461Z,75.70
2018-09-09T08:01:38.927Z,75.00
2018-09-09T08:04:07.428Z,75.50
2018-09-09T08:06:35.876Z,74.20
2018-09-09T08:09:06.278Z,74.70
2018-09-09T08:11:36.941Z,74.80
2018-09-09T08:14:06.635Z,74.60
2018-09-09T08:16:35.648Z,74.10
2018-09-09T08:19:05.322Z,74.50
2018-09-09T08:21:37.338Z,74.50
2018-09-09T08:24:08.168Z,74.20
2018-09-09T08:26:37.693Z,73.30
2018-09-09T08:29:06.284Z,73.40
2018-09-09T08:31:35.357Z,73.40
2018-09-09T08:34:03.912Z,71.70
2018-09-09T08:36:32.380Z,71.10
2018-09-09T08:39:00.772Z,70.00
2018-09-09T08:41:29.175Z,69.00
2018-09-09T08:43:59.151Z,68.30
2018-09-09T08:46:27.688Z,68.30
2018-09-09T08:48:56.142Z,68.80
2018-09-09T08:51:24.525Z,68.90
2018-09-09T08:53:52.932Z,68.70
2018-09-09T08:56:21.320Z,69.40
2018-09-09T08:58:50.253Z,69.40
2018-09-09T09:01:18.692Z,68.50
2018-09-09T09:03:47.155Z,68.10
2018-09-09T09:06:15.578Z,67.00
2018-09-09T09:08:43.994Z,67.30
2018-09-09T09:11:12.407Z,66.00
2018-09-09T09:13:40.809Z,65.80
2018-09-09T09:16:09.190Z,66.90
2018-09-09T09:18:37.655Z,65.20
2018-09-09T09:21:06.142Z,63.80
2018-09-09T09:23:34.698Z,63.10
2018-09-09T09:26:03.040Z,61.80
2018-09-09T09:28:32.019Z,63.00
2018-09-09T09:31:00.421Z,62.20
2018-09-09T09:33:28.829Z,61.70
2018-09-09T09:35:57.332Z,60.80
2018-09-09T09:38:25.771Z,60.60
2018-09-09T09:40:54.197Z,59.40
2018-09-09T09:43:22.584Z,59.30
2018-09-09T09:45:51.028Z,57.00
2018-09-09T09:48:19.525Z,55.40
2018-09-09T09:50:48.032Z,54.30
2018-09-09T09:53:16.880Z,55.40
2018-09-09T09:55:45.303Z,54.20
2018-09-09T09:58:14.241Z,54.80
2018-09-09T10:00:49.486Z,55.00
2018-09-09T10:03:17.977Z,55.30
2018-09-09T10:05:46.452Z,56.00
2018-09-09T10:08:14.927Z,55.80
2018-09-09T10:10:43.720Z,55.10
2018-09-09T10:13:12.292Z,56.00
2018-09-09T10:15:40.704Z,55.70
2018-09-09T10:18:09.262Z,55.00
2018-09-09T10:20:37.682Z,55.70
2018-09-09T10:23:06.675Z,54.80
2018-09-09T10:25:35.312Z,55.60
2018-09-09T10:28:06.792Z,55.50
2018-09-09T10:30:35.257Z,54.70
2018-09-09T10:33:05.743Z,54.10
2018-09-09T10:35:40.830Z,54.10
2018-09-09T10:38:09.267Z,54.10
2018-09-09T10:40:37.645Z,54.30
2018-09-09T10:43:06.115Z,54.60
2018-09-09T10:45:34.512Z,55.00
2018-09-09T10:48:02.922Z,55.40
2018-09-09T10:50:31.415Z,54.80
2018-09-09T10:53:03.483Z,54.20
2018-09-09T10:55:32.056Z,54.10
2018-09-09T10:58:00.497Z,53.40
2018-09-09T11:00:28.881Z,52.70
2018-09-09T11:02:57.832Z,52.10
2018-09-09T11:05:27.184Z,51.70
2018-09-09T11:07:55.600Z,50.80
2018-09-09T11:10:23.976Z,50.10
2018-09-09T11:12:52.436Z,48.90
2018-09-09T11:15:20.893Z,48.90
2018-09-09T11:17:49.309Z,48.90
2018-09-09T11:20:17.750Z,47.70
2018-09-09T11:22:47.242Z,48.20
2018-09-09T11:25:16.092Z,47.80
2018-09-09T11:27:44.465Z,47.20
2018-09-09T11:30:12.889Z,45.90
2018-09-09T11:32:41.368Z,44.80
2018-09-09T11:35:09.761Z,43.70
2018-09-09T11:37:38.138Z,44.40
2018-09-09T11:40:07.603Z,43.20
2018-09-09T11:42:36.284Z,39.40
2018-09-09T11:45:06.819Z,39.50
2018-09-09T11:47:37.352Z,38.30
2018-09-09T11:50:07.531Z,36.00
2018-09-09T11:52:38.142Z,34.40
2018-09-09T11:55:09.254Z,33.40
2018-09-09T11:57:40.452Z,32.80
2018-09-09T12:00:09.765Z,31.40
2018-09-09T12:02:39.446Z,27.50
2018-09-09T12:05:09.140Z,26.90
2018-09-09T12:07:38.426Z,26.90
2018-09-09T12:10:06.902Z,23.90
2018-09-09T12:12:35.289Z,22.20
2018-09-09T12:15:04.064Z,21.90
2018-09-09T12:17:32.494Z,21.20
2018-09-09T12:20:00.961Z,20.50
2018-09-09T12:22:29.522Z,20.90
2018-09-09T12:24:58.824Z,20.90
2018-09-09T12:27:27.353Z,20.20
2018-09-09T12:29:55.842Z,21.10
2018-09-09T12:32:24.469Z,20.80
2018-09-09T12:34:52.762Z,20.80
2018-09-09T12:37:21.196Z,20.50
2018-09-09T12:39:49.870Z,19.70
2018-09-09T12:42:18.432Z,20.60
2018-09-09T12:44:52.080Z,21.30
2018-09-09T12:47:25.882Z,21.30
2018-09-09T12:49:54.294Z,21.40
2018-09-09T12:52:23.162Z,20.40
2018-09-09T12:54:51.602Z,20.20
2018-09-09T12:57:20.144Z,21.20
2018-09-09T12:59:48.823Z,22.50
2018-09-09T13:02:19.139Z,23.90
2018-09-09T13:04:47.729Z,25.30
2018-09-09T13:07:16.140Z,27.80
2018-09-09T13:09:44.615Z,28.90
2018-09-09T13:12:13.630Z,29.90
2018-09-09T13:14:42.172Z,31.00
2018-09-09T13:17:10.664Z,31.30
2018-09-09T13:19:39.166Z,31.60
2018-09-09T13:22:07.680Z,32.10
2018-09-09T13:24:36.088Z,32.40
2018-09-09T13:27:04.590Z,33.10
2018-09-09T13:29:33.038Z,33.50
2018-09-09T13:32:01.503Z,32.60
2018-09-09T13:34:30.280Z,31.50
2018-09-09T13:36:58.743Z,32.50
2018-09-09T13:39:27.338Z,33.50
2018-09-09T13:41:55.822Z,34.20
2018-09-09T13:44:24.384Z,33.80
2018-09-09T13:46:52.908Z,34.80
2018-09-09T13:49:21.429Z,33.30
2018-09-09T13:51:49.945Z,33.00
2018-09-09T13:54:18.516Z,33.50
2018-09-09T13:56:48.476Z,34.10
2018-09-09T13:59:18.981Z,34.90
2018-09-09T14:01:47.691Z,35.20
2018-09-09T14:04:16.293Z,35.30
2018-09-09T14:06:46.654Z,36.40
2018-09-09T14:09:15.096Z,36.70
2018-09-09T14:11:43.495Z,36.70
2018-09-09T14:14:12.003Z,37.60
2018-09-09T14:16:40.401Z,37.80
2018-09-09T14:19:08.811Z,37.90
2018-09-09T14:21:37.320Z,36.90
2018-09-09T14:24:05.895Z,37.60
2018-09-09T14:26:34.330Z,37.90
2018-09-09T14:29:02.709Z,38.30
2018-09-09T14:31:31.600Z,38.10
2018-09-09T14:33:59.999Z,39.20
2018-09-09T14:36:28.446Z,39.00
2018-09-09T14:38:56.911Z,39.20
2018-09-09T14:41:25.852Z,39.00
2018-09-09T14:43:54.295Z,39.10
2018-09-09T14:46:22.777Z,38.60
2018-09-09T14:48:51.236Z,37.40
2018-09-09T14:51:19.921Z,37.10
2018-09-09T14:53:48.428Z,36.60
2018-09-09T14:56:16.956Z,33.90
2018-09-09T14:58:46.061Z,34.30
2018-09-09T15:01:14.596Z,35.70
2018-09-09T15:03:46.276Z,35.50
2018-09-09T15:06:15.199Z,36.00
2018-09-09T15:08:43.610Z,36.70
2018-09-09T15:11:12.012Z,36.80
2018-09-09T15:13:40.637Z,37.80
2018-09-09T15:16:09.086Z,38.10
2018-09-09T15:18:37.665Z,37.90
2018-09-09T15:21:06.180Z,37.40
2018-09-09T15:23:34.926Z,38.10
2018-09-09T15:26:03.453Z,37.90
2018-09-09T15:28:32.086Z,38.00
2018-09-09T15:31:00.772Z,37.30
2018-09-09T15:33:29.496Z,36.70
2018-09-09T15:35:58.308Z,36.30
2018-09-09T15:38:26.791Z,36.80
2018-09-09T15:40:55.449Z,35.90
2018-09-09T15:43:23.998Z,36.60
2018-09-09T15:45:52.494Z,37.10
2018-09-09T15:48:21.922Z,37.90
2018-09-09T15:50:50.927Z,37.90
2018-09-09T15:53:22.079Z,38.10
2018-09-09T15:55:50.693Z,38.20
2018-09-09T15:58:20.074Z,39.00
2018-09-09T16:00:49.086Z,39.70
2018-09-09T16:03:17.486Z,39.70
2018-09-09T16:05:46.476Z,40.10
2018-09-09T16:08:14.962Z,40.00
2018-09-09T16:10:43.671Z,40.70
2018-09-09T16:13:12.143Z,41.40
2018-09-09T16:15:40.907Z,42.10
2018-09-09T16:18:09.460Z,42.30
2018-09-09T16:20:37.932Z,42.30
2018-09-09T16:23:06.832Z,41.40
2018-09-09T16:25:42.333Z,41.10
2018-09-09T16:28:11.711Z,41.30
2018-09-09T16:30:40.818Z,40.70
2018-09-09T16:33:10.660Z,40.50
2018-09-09T16:35:39.800Z,40.20
2018-09-09T16:38:14.289Z,39.40
2018-09-09T16:40:48.381Z,39.00
2018-09-09T16:43:16.899Z,39.20
2018-09-09T16:45:46.043Z,39.30
2018-09-09T16:48:15.212Z,40.40
2018-09-09T16:50:44.684Z,40.40
2018-09-09T16:53:13.175Z,40.90
2018-09-09T16:55:42.059Z,41.00
2018-09-09T16:58:12.357Z,41.30
2018-09-09T17:00:40.783Z,42.40
2018-09-09T17:03:09.199Z,43.00
2018-09-09T17:05:38.424Z,43.40
2018-09-09T17:08:06.867Z,43.50
2018-09-09T17:10:35.387Z,43.70
2018-09-09T17:13:06.188Z,43.90
2018-09-09T17:15:34.697Z,44.60
2018-09-09T17:18:03.129Z,44.90
2018-09-09T17:20:31.648Z,45.20
2018-09-09T17:23:00.077Z,45.70
2018-09-09T17:25:29.377Z,46.10
2018-09-09T17:27:58.471Z,46.60
2018-09-09T17:30:27.107Z,47.20
2018-09-09T17:32:55.602Z,47.20
2018-09-09T17:35:24.116Z,47.30
2018-09-09T17:37:52.693Z,47.20
2018-09-09T17:40:21.209Z,47.40
2018-09-09T17:42:49.670Z,48.00
2018-09-09T17:45:18.082Z,48.30
2018-09-09T17:47:46.485Z,48.60
2018-09-09T17:50:16.129Z,49.10
2018-09-09T17:52:44.688Z,49.20
2018-09-09T17:55:13.941Z,49.50
2018-09-09T17:57:42.380Z,50.50
2018-09-09T18:00:12.316Z,50.80
2018-09-09T18:02:40.758Z,50.90
2018-09-09T18:05:09.753Z,51.40
2018-09-09T18:07:38.203Z,51.30
2018-09-09T18:10:07.053Z,51.60
2018-09-09T18:12:35.595Z,51.80
2018-09-09T18:15:04.116Z,52.00
2018-09-09T18:17:32.591Z,52.30
2018-09-09T18:20:00.970Z,52.40
2018-09-09T18:22:29.395Z,52.70
2018-09-09T18:25:04.804Z,52.80
2018-09-09T18:27:33.229Z,53.20
2018-09-09T18:30:01.705Z,53.50
2018-09-09T18:32:30.083Z,53.50
2018-09-09T18:34:58.609Z,53.70
2018-09-09T18:37:27.011Z,53.80
2018-09-09T18:39:55.469Z,53.80
2018-09-09T18:42:23.869Z,53.70
2018-09-09T18:44:52.332Z,53.90
2018-09-09T18:47:21.159Z,54.10
2018-09-09T18:49:49.579Z,53.90
2018-09-09T18:52:17.966Z,53.80
2018-09-09T18:54:46.617Z,53.30
2018-09-09T18:57:15.162Z,53.00
2018-09-09T18:59:43.694Z,52.90
2018-09-09T19:02:12.177Z,53.00
2018-09-09T19:04:40.652Z,52.80
2018-09-09T19:07:09.131Z,53.20
2018-09-09T19:09:37.707Z,53.30
2018-09-09T19:12:06.143Z,53.60
2018-09-09T19:14:34.803Z,54.40
2018-09-09T19:17:03.391Z,55.20
2018-09-09T19:19:31.911Z,55.30
2018-09-09T19:22:00.616Z,55.40
2018-09-09T19:24:29.261Z,56.10
2018-09-09T19:26:57.772Z,56.20
2018-09-09T19:29:26.266Z,56.80
2018-09-09T19:31:54.868Z,56.90
2018-09-09T19:34:23.317Z,57.10
2018-09-09T19:36:51.833Z,57.70
2018-09-09T19:39:20.487Z,57.90
2018-09-09T19:41:48.997Z,58.20
2018-09-09T19:44:17.510Z,58.70
2018-09-09T19:46:46.074Z,58.60
2018-09-09T19:49:14.653Z,58.50
2018-09-09T19:51:43.173Z,58.30
2018-09-09T19:54:11.752Z,58.60
2018-09-09T19:56:40.511Z,58.90
2018-09-09T19:59:09.217Z,59.30
2018-09-09T20:01:37.768Z,59.60
2018-09-09T20:04:06.336Z,60.90
2018-09-09T20:06:35.096Z,60.60
2018-09-09T20:09:06.177Z,59.60
2018-09-09T20:11:34.668Z,60.40
2018-09-09T20:14:03.159Z,60.90
2018-09-09T20:16:31.631Z,60.90
2018-09-09T20:19:00.240Z,61.10
2018-09-09T20:21:28.850Z,61.80
2018-09-09T20:23:57.655Z,61.80
2018-09-09T20:26:26.247Z,61.80
2018-09-09T20:28:54.752Z,62.00
2018-09-09T20:31:23.333Z,61.50
2018-09-09T20:33:51.826Z,61.90
2018-09-09T20:36:20.329Z,61.70
2018-09-09T20:38:48.903Z,61.80
2018-09-09T20:41:17.351Z,62.10
2018-09-09T20:43:46.192Z,62.10
2018-09-09T20:46:21.953Z,62.60
2018-09-09T20:48:50.508Z,62.40
2018-09-09T20:51:19.156Z,62.30
2018-09-09T20:53:47.561Z,62.30
2018-09-09T20:56:15.987Z,62.50
2018-09-09T20:58:44.361Z,62.90
2018-09-09T21:01:12.759Z,62.90
2018-09-09T21:03:45.223Z,63.30
2018-09-09T21:06:13.602Z,62.80
2018-09-09T21:08:42.537Z,63.10
2018-09-09T21:11:11.501Z,62.20
2018-09-09T21:13:40.737Z,62.30
2018-09-09T21:16:09.412Z,62.90
2018-09-09T21:18:37.817Z,63.00
2018-09-09T21:21:07.143Z,62.70
2018-09-09T21:23:36.183Z,62.30
2018-09-09T21:26:05.309Z,62.40
2018-09-09T21:28:34.146Z,62.70
2018-09-09T21:31:03.797Z,63.10
2018-09-09T21:33:32.955Z,63.20
2018-09-09T21:36:03.159Z,63.50
2018-09-09T21:38:31.976Z,63.70
2018-09-09T21:41:02.883Z,63.70
2018-09-09T21:43:31.648Z,63.80
2018-09-09T21:46:00.102Z,63.80
2018-09-09T21:48:28.538Z,63.80
2018-09-09T21:50:57.030Z,64.00
2018-09-09T21:53:25.561Z,64.20
2018-09-09T21:55:54.365Z,64.50
2018-09-09T21:58:24.146Z,64.60
2018-09-09T22:00:57.735Z,64.80
2018-09-09T22:03:27.224Z,65.20
2018-09-09T22:05:57.939Z,65.10
2018-09-09T22:08:28.573Z,65.50
2018-09-09T22:10:57.102Z,65.80
2018-09-09T22:13:26.541Z,65.90
2018-09-09T22:15:54.997Z,66.30
2018-09-09T22:18:24.320Z,66.30
2018-09-09T22:20:52.996Z,66.10
2018-09-09T22:23:21.956Z,66.00
2018-09-09T22:25:50.419Z,66.40
2018-09-09T22:28:18.907Z,66.90
2018-09-09T22:30:47.312Z,67.10
2018-09-09T22:36:04.214Z,68.50
2018-09-09T22:38:32.794Z,68.70
2018-09-09T22:41:01.455Z,69.30
2018-09-09T22:43:29.904Z,69.60
2018-09-09T22:45:58.762Z,70.10
2018-09-09T22:48:27.874Z,70.30
2018-09-09T22:50:56.561Z,71.00
2018-09-09T22:53:27.769Z,71.30
2018-09-09T22:55:56.181Z,71.60
2018-09-09T22:58:24.738Z,71.80
2018-09-09T23:00:53.263Z,72.20
2018-09-09T23:03:22.746Z,72.40
2018-09-09T23:05:51.843Z,73.00
2018-09-09T23:08:20.367Z,73.30
2018-09-09T23:10:49.754Z,73.20
2018-09-09T23:13:18.211Z,73.30
2018-09-09T23:15:46.876Z,73.50
2018-09-09T23:18:15.488Z,74.50
2018-09-09T23:20:43.931Z,74.80
2018-09-09T23:23:12.411Z,74.90
2018-09-09T23:25:40.814Z,75.20
2018-09-09T23:28:09.287Z,75.60
2018-09-09T23:30:37.620Z,75.80
2018-09-09T23:33:05.666Z,75.90
2018-09-09T23:35:34.108Z,76.20
2018-09-09T23:38:02.545Z,74.90
2018-09-09T23:40:30.933Z,74.70
2018-09-09T23:42:59.328Z,74.60
2018-09-09T23:45:27.756Z,75.10
2018-09-09T23:47:56.188Z,76.40
2018-09-09T23:50:24.799Z,76.60
2018-09-09T23:52:53.203Z,75.80
2018-09-09T23:55:21.662Z,76.00
2018-09-09T23:57:50.236Z,75.70
